Time;durP1;ratioP1;P1;durP2;ratioP2;P2;SDS_P1;SDS_P2;PMS_P1;PMS_P2;Temp;Humidity;BMP_temperature;BMP_pressure;BME280_temperature;BME280_humidity;BME280_pressure;Samples;Min_cycle;Max_cycle;Signal;HPM_P1;HPM_P2
2021/05/10 03:29:19;;;;;;;14.63;7.03;;;;;;;5.28;70.42;98960.33;4261519;79;5356896;-83
2021/05/10 03:56:53;;;;;;;19.80;9.43;;;;;;;6.48;71.37;98961.12;4634077;74;22842;-84
2021/05/10 04:13:52;;;;;;;7.70;4.45;;;;;;;7.91;68.22;98950.93;4228487;82;23695;-84
2021/05/10 04:20:33;;;;;;;5.37;1.87;;;;;;;9.79;65.29;98953.02;4395538;78;22749;-84
2021/05/10 04:26:49;;;;;;;3.72;1.75;;;;;;;10.06;64.42;98948.48;4506685;76;22991;-83
2021/05/10 04:33:08;;;;;;;7.37;1.85;;;;;;;10.43;63.79;98949.33;4443287;79;22782;-83
2021/05/10 04:39:30;;;;;;;7.28;2.42;;;;;;;10.62;63.75;98945.04;4523419;77;23004;-83
2021/05/10 04:45:40;;;;;;;2.47;1.45;;;;;;;11.11;62.35;98943.33;4555611;76;28694;-85
2021/05/10 04:51:59;;;;;;;2.30;1.00;;;;;;;12.67;56.37;98940.23;4442583;79;22586;-84
2021/05/10 04:58:10;;;;;;;3.10;1.20;;;;;;;13.84;49.30;98948.06;4327905;76;65138;-84
2021/05/10 05:04:25;;;;;;;2.00;1.00;;;;;;;14.59;46.79;98932.81;4391184;79;23008;-84
2021/05/10 05:10:35;;;;;;;4.65;1.30;;;;;;;15.04;44.55;98946.28;4223966;79;40218;-83
2021/05/10 05:16:46;;;;;;;3.40;0.80;;;;;;;15.40;40.45;98937.14;4575109;75;22856;-83
2021/05/10 05:23:20;;;;;;;1.62;1.07;;;;;;;15.83;41.11;98937.52;4182207;78;36552;-84
2021/05/10 05:29:31;;;;;;;3.15;1.17;;;;;;;16.35;37.89;98933.34;4472547;79;22967;-84
2021/05/10 05:46:45;;;;;;;1.95;0.90;;;;;;;17.12;37.25;98928.08;4438744;78;22929;-84
2021/05/10 05:52:55;;;;;;;3.30;1.07;;;;;;;17.42;36.58;98919.67;4590608;75;22565;-84
2021/05/10 05:59:10;;;;;;;1.82;1.10;;;;;;;17.69;34.78;98932.07;4445399;78;24116;-84
2021/05/10 06:05:41;;;;;;;4.58;1.42;;;;;;;17.83;36.45;98933.19;4468392;77;22911;-84
2021/05/10 06:11:57;;;;;;;3.47;1.02;;;;;;;17.99;34.78;98938.82;4451850;78;22275;-85
2021/05/10 06:28:32;;;;;;;2.10;1.22;;;;;;;18.53;35.39;98938.11;4470266;77;22791;-85
2021/05/10 06:35:05;;;;;;;3.45;1.27;;;;;;;18.60;35.06;98941.34;4534578;75;28060;-84
2021/05/10 06:41:27;;;;;;;4.17;1.30;;;;;;;18.91;34.23;98931.52;4388170;79;23197;-85
2021/05/10 06:47:40;;;;;;;1.82;0.90;;;;;;;19.14;33.84;98938.91;4390636;79;23175;-84
2021/05/10 06:53:55;;;;;;;1.37;0.90;;;;;;;19.38;32.86;98927.22;4500370;77;23115;-84
2021/05/10 07:00:16;;;;;;;4.65;1.80;;;;;;;19.60;33.10;98926.06;4380614;79;23310;-85
2021/05/10 07:06:33;;;;;;;2.45;1.47;;;;;;;19.70;31.01;98927.16;4367840;79;22388;-83
2021/05/10 07:12:45;;;;;;;4.00;1.00;;;;;;;19.86;33.30;98924.35;4505286;76;28579;-84
2021/05/10 07:19:05;;;;;;;1.90;0.88;;;;;;;20.33;31.48;98926.66;4481906;77;23428;-85
2021/05/10 07:25:47;;;;;;;2.08;1.10;;;;;;;20.59;32.23;98928.25;4436436;79;23580;-84
2021/05/10 07:32:28;;;;;;;4.53;1.40;;;;;;;20.93;30.90;98920.03;4410164;78;24815;-85
2021/05/10 07:38:47;;;;;;;3.15;1.05;;;;;;;21.24;30.53;98912.07;4391505;75;52459;-85
2021/05/10 07:45:20;;;;;;;2.90;1.10;;;;;;;21.71;30.49;98909.27;4387892;78;22780;-85
2021/05/10 07:51:30;;;;;;;2.37;1.30;;;;;;;22.36;28.98;98907.33;4592676;75;22667;-84
2021/05/10 08:08:06;;;;;;;2.20;1.20;;;;;;;23.28;27.82;98905.11;4293849;80;29039;-84
2021/05/10 08:14:20;;;;;;;1.77;0.80;;;;;;;23.85;26.76;98928.02;4674727;74;23061;-85
2021/05/10 08:20:44;;;;;;;2.33;0.73;;;;;;;23.80;26.46;98921.66;4523800;75;29015;-85
2021/05/10 08:27:10;;;;;;;3.80;1.30;;;;;;;24.13;25.17;98919.81;4444466;79;23897;-85
2021/05/10 08:33:25;;;;;;;3.08;0.80;;;;;;;23.96;25.98;98902.56;4585715;75;22093;-85
2021/05/10 08:39:37;;;;;;;2.92;0.75;;;;;;;23.93;26.01;98902.72;4499794;78;22290;-84
2021/05/10 08:46:04;;;;;;;2.40;0.90;;;;;;;24.14;24.45;98900.38;4577429;76;22934;-84
2021/05/10 08:52:36;;;;;;;1.35;0.88;;;;;;;24.04;24.95;98908.00;4448776;78;23223;-85
2021/05/10 08:59:11;;;;;;;3.12;0.90;;;;;;;24.08;25.17;98887.66;4352393;80;26735;-84
2021/05/10 09:05:25;;;;;;;1.95;1.00;;;;;;;24.33;24.61;98888.70;4431862;78;23072;-86
2021/05/10 09:18:18;;;;;;;10.32;1.50;;;;;;;25.33;24.44;98879.89;4384294;79;22964;-85
2021/05/10 09:31:24;;;;;;;2.22;1.10;;;;;;;26.16;23.87;98869.77;4595964;75;22922;-84
2021/05/10 09:48:23;;;;;;;2.30;0.85;;;;;;;27.26;23.49;98853.35;4451892;79;22552;-86
2021/05/10 09:55:04;;;;;;;1.27;0.80;;;;;;;27.81;22.08;98856.70;4449250;79;23421;-83
2021/05/10 10:01:15;;;;;;;2.50;0.95;;;;;;;28.12;22.75;98851.17;4477037;78;23010;-84
2021/05/10 10:07:53;;;;;;;1.15;0.68;;;;;;;28.49;22.75;98843.60;4629343;75;22948;-86
2021/05/10 10:14:05;;;;;;;1.65;1.00;;;;;;;28.70;22.08;98835.20;4454783;77;28688;-82
2021/05/10 10:20:24;;;;;;;2.85;1.07;;;;;;;29.29;20.49;98819.85;4377857;79;22716;-82
2021/05/10 10:26:43;;;;;;;3.12;1.10;;;;;;;29.02;21.22;98816.33;4447776;79;22511;-84
2021/05/10 10:32:59;;;;;;;8.10;0.82;;;;;;;29.06;21.33;98810.50;4504252;77;22602;-82
2021/05/10 10:39:30;;;;;;;1.25;0.80;;;;;;;29.31;20.57;98815.23;4458766;77;23323;-83
2021/05/10 10:46:27;;;;;;;3.20;0.82;;;;;;;29.52;19.15;98797.52;4509531;76;24459;-85
2021/05/10 10:53:02;;;;;;;2.70;0.90;;;;;;;29.48;19.56;98792.73;4519815;76;23317;-87
2021/05/10 10:59:36;;;;;;;1.67;0.65;;;;;;;29.38;19.67;98779.50;4394217;79;22513;-85
2021/05/10 11:05:47;;;;;;;5.17;1.27;;;;;;;29.73;19.15;98794.64;4452586;78;22955;-83
2021/05/10 11:11:57;;;;;;;1.30;0.60;;;;;;;29.77;19.07;98793.77;4391751;79;23003;-82
2021/05/10 11:32:58;;;;;;;2.20;0.78;;;;;;;31.16;18.59;98780.52;4427955;78;22323;-83
2021/05/10 11:39:27;;;;;;;0.98;0.70;;;;;;;32.07;18.51;98776.09;4449259;79;22548;-83
2021/05/10 11:56:29;;;;;;;3.17;0.60;;;;;;;32.06;17.55;98757.58;4543258;77;23620;-84
